createdAt,value
2023-09-24T00:00:21.368Z,72.98
2023-09-24T00:02:51.265Z,73.14
2023-09-24T00:05:20.707Z,73.17
2023-09-24T00:07:49.215Z,74.52
2023-09-24T00:10:17.109Z,74.75
2023-09-24T00:12:45.040Z,74.36
2023-09-24T00:15:14.911Z,74.07
2023-09-24T00:17:42.929Z,74.21
2023-09-24T00:20:11.605Z,73.97
2023-09-24T00:22:40.026Z,73.96
2023-09-24T00:25:08.691Z,73.85
2023-09-24T00:27:36.829Z,73.87
2023-09-24T00:30:06.741Z,73.96
2023-09-24T00:32:36.418Z,74.03
2023-09-24T00:35:07.201Z,73.91
2023-09-24T00:37:35.046Z,73.89
2023-09-24T00:40:04.927Z,74.07
2023-09-24T00:42:32.997Z,74.45
2023-09-24T00:45:00.877Z,74.71
2023-09-24T00:47:29.501Z,74.68
2023-09-24T00:49:59.465Z,74.70
2023-09-24T00:52:27.753Z,74.63
2023-09-24T00:54:57.499Z,74.58
2023-09-24T00:57:26.946Z,74.60
2023-09-24T00:59:55.684Z,74.59
2023-09-24T01:02:23.325Z,74.62
2023-09-24T01:04:54.791Z,75.02
2023-09-24T01:07:22.655Z,74.84
2023-09-24T01:09:50.849Z,75.00
2023-09-24T01:12:23.914Z,75.10
2023-09-24T01:14:53.774Z,75.29
2023-09-24T01:17:23.521Z,75.18
2023-09-24T01:19:54.530Z,75.19
2023-09-24T01:22:22.902Z,75.31
2023-09-24T01:24:50.585Z,75.41
2023-09-24T01:27:18.678Z,75.54
2023-09-24T01:29:46.605Z,75.56
2023-09-24T01:32:15.738Z,75.58
2023-09-24T01:34:46.080Z,75.63
2023-09-24T01:37:15.149Z,75.99
2023-09-24T01:39:43.777Z,75.90
2023-09-24T01:42:13.462Z,75.97
2023-09-24T01:44:43.025Z,76.21
2023-09-24T01:47:12.374Z,76.56
2023-09-24T01:49:40.266Z,76.95
2023-09-24T01:52:08.011Z,77.88
2023-09-24T01:54:36.077Z,78.21
2023-09-24T01:57:04.061Z,77.75
2023-09-24T01:59:32.103Z,77.77
2023-09-24T02:02:00.120Z,77.71
2023-09-24T02:04:28.129Z,77.77
2023-09-24T02:06:56.008Z,77.67
2023-09-24T02:09:24.257Z,77.84
2023-09-24T02:11:53.919Z,77.95
2023-09-24T02:14:21.839Z,78.03
2023-09-24T02:16:51.413Z,78.32
2023-09-24T02:19:19.276Z,78.50
2023-09-24T02:21:47.557Z,78.71
2023-09-24T02:24:15.463Z,79.09
2023-09-24T02:26:43.472Z,79.65
2023-09-24T02:29:11.220Z,79.68
2023-09-24T02:31:39.531Z,80.34
2023-09-24T02:34:07.234Z,80.63
2023-09-24T02:36:35.400Z,80.63
2023-09-24T02:39:03.457Z,81.32
2023-09-24T02:41:32.116Z,81.67
2023-09-24T02:44:01.785Z,81.62
2023-09-24T02:46:30.679Z,81.67
2023-09-24T02:48:58.499Z,81.93
2023-09-24T02:51:26.404Z,82.23
2023-09-24T02:53:54.241Z,81.88
2023-09-24T02:56:22.250Z,82.08
2023-09-24T02:58:50.325Z,82.10
2023-09-24T03:01:20.011Z,81.89
2023-09-24T03:03:49.979Z,81.94
2023-09-24T03:06:18.210Z,82.30
2023-09-24T03:08:47.926Z,82.12
2023-09-24T03:11:15.864Z,81.92
2023-09-24T03:13:45.017Z,81.94
2023-09-24T03:16:13.117Z,81.66
2023-09-24T03:18:40.834Z,81.50
2023-09-24T03:21:14.107Z,81.37
2023-09-24T03:23:42.242Z,81.28
2023-09-24T03:26:11.871Z,80.99
2023-09-24T03:28:40.312Z,80.79
2023-09-24T03:31:16.135Z,80.71
2023-09-24T03:33:44.115Z,80.56
2023-09-24T03:36:12.342Z,80.42
2023-09-24T03:38:40.277Z,80.27
2023-09-24T03:41:09.410Z,80.26
2023-09-24T03:43:37.198Z,80.16
2023-09-24T03:46:05.426Z,80.06
2023-09-24T03:48:33.470Z,80.12
2023-09-24T03:51:01.333Z,79.94
2023-09-24T03:53:29.207Z,79.79
2023-09-24T03:55:59.430Z,79.85
2023-09-24T03:58:27.327Z,79.81
2023-09-24T04:00:55.408Z,79.71
2023-09-24T04:03:23.949Z,79.79
2023-09-24T04:05:53.515Z,79.63
2023-09-24T04:08:21.422Z,79.56
2023-09-24T04:10:50.292Z,79.76
2023-09-24T04:13:18.416Z,79.90
2023-09-24T04:15:46.715Z,79.85
2023-09-24T04:18:15.327Z,79.72
2023-09-24T04:20:44.676Z,79.81
2023-09-24T04:23:12.571Z,80.23
2023-09-24T04:25:40.555Z,80.29
2023-09-24T04:28:09.037Z,80.39
2023-09-24T04:30:37.186Z,80.53
2023-09-24T04:33:06.977Z,80.53
2023-09-24T04:35:34.625Z,80.47
2023-09-24T04:38:02.231Z,80.29
2023-09-24T04:40:31.911Z,80.40
2023-09-24T04:43:00.487Z,80.48
2023-09-24T04:45:28.371Z,80.20
2023-09-24T04:47:56.588Z,80.35
2023-09-24T04:50:26.223Z,80.24
2023-09-24T04:52:55.669Z,79.82
2023-09-24T04:55:25.330Z,79.71
2023-09-24T04:57:53.712Z,79.96
2023-09-24T05:00:22.382Z,80.03
2023-09-24T05:02:50.327Z,79.78
2023-09-24T05:05:18.570Z,79.92
2023-09-24T05:07:46.444Z,80.36
2023-09-24T05:10:14.381Z,80.22
2023-09-24T05:12:42.756Z,80.16
2023-09-24T05:15:11.292Z,80.02
2023-09-24T05:17:39.062Z,79.89
2023-09-24T05:20:09.225Z,79.84
2023-09-24T05:22:37.093Z,79.81
2023-09-24T05:25:06.260Z,79.12
2023-09-24T05:27:34.664Z,78.84
2023-09-24T05:30:03.045Z,78.38
2023-09-24T05:32:31.191Z,77.83
2023-09-24T05:34:59.661Z,77.45
2023-09-24T05:37:27.365Z,77.14
2023-09-24T05:39:54.998Z,76.62
2023-09-24T05:42:22.636Z,76.42
2023-09-24T05:44:50.757Z,75.64
2023-09-24T05:47:19.914Z,75.18
2023-09-24T05:49:47.735Z,73.83
2023-09-24T05:52:15.642Z,72.02
2023-09-24T05:54:43.928Z,70.96
2023-09-24T05:57:11.762Z,70.24
2023-09-24T05:59:39.931Z,68.37
2023-09-24T06:02:07.506Z,66.55
2023-09-24T06:04:35.582Z,65.72
2023-09-24T06:07:03.537Z,63.20
2023-09-24T06:09:31.258Z,61.76
2023-09-24T06:11:59.210Z,60.26
2023-09-24T06:14:26.940Z,58.45
2023-09-24T06:16:54.857Z,56.87
2023-09-24T06:19:23.017Z,55.45
2023-09-24T06:21:51.550Z,54.03
2023-09-24T06:24:20.802Z,52.86
2023-09-24T06:26:48.823Z,51.90
2023-09-24T06:29:16.550Z,50.48
2023-09-24T06:31:44.506Z,48.71
2023-09-24T06:34:12.228Z,49.12
2023-09-24T06:36:40.013Z,48.28
2023-09-24T06:39:12.633Z,47.48
2023-09-24T06:41:40.918Z,47.25
2023-09-24T06:44:14.617Z,46.47
2023-09-24T06:46:42.333Z,46.22
2023-09-24T06:49:11.088Z,46.06
2023-09-24T06:51:39.078Z,45.77
2023-09-24T06:54:06.950Z,44.84
2023-09-24T06:56:34.799Z,44.99
2023-09-24T06:59:02.559Z,44.17
2023-09-24T07:01:30.418Z,44.44
2023-09-24T07:03:58.689Z,43.68
2023-09-24T07:06:26.904Z,43.62
2023-09-24T07:08:54.528Z,43.54
2023-09-24T07:11:34.731Z,43.11
2023-09-24T07:14:02.705Z,42.73
2023-09-24T07:16:31.244Z,42.51
2023-09-24T07:18:59.383Z,42.18
2023-09-24T07:21:35.945Z,42.64
2023-09-24T07:24:02.678Z,42.73
2023-09-24T07:26:30.285Z,42.71
2023-09-24T07:28:58.042Z,43.49
2023-09-24T07:31:29.664Z,44.16
2023-09-24T07:33:59.214Z,44.04
2023-09-24T07:38:56.673Z,44.23
2023-09-24T07:41:24.532Z,44.34
2023-09-24T07:43:52.277Z,43.43
2023-09-24T07:46:20.770Z,42.58
2023-09-24T07:48:49.518Z,42.34
2023-09-24T07:51:17.830Z,42.24
2023-09-24T07:53:47.646Z,42.22
2023-09-24T07:56:15.950Z,42.37
2023-09-24T07:58:43.619Z,42.12
2023-09-24T08:01:14.680Z,41.95
2023-09-24T08:03:46.413Z,41.77
2023-09-24T08:06:14.775Z,41.31
2023-09-24T08:11:12.401Z,41.50
2023-09-24T08:13:39.972Z,41.66
2023-09-24T08:16:08.117Z,41.97
2023-09-24T08:18:36.128Z,42.00
2023-09-24T08:21:04.227Z,42.21
2023-09-24T08:23:33.501Z,42.55
2023-09-24T08:26:01.307Z,42.90
2023-09-24T08:28:31.168Z,42.92
2023-09-24T08:31:12.885Z,43.30
2023-09-24T08:33:42.081Z,43.65
2023-09-24T08:36:11.832Z,44.07
2023-09-24T08:38:40.656Z,44.60
2023-09-24T08:41:13.652Z,45.34
2023-09-24T08:43:43.509Z,46.00
2023-09-24T08:46:12.783Z,46.57
2023-09-24T08:48:42.872Z,46.97
2023-09-24T08:51:11.847Z,48.64
2023-09-24T08:53:41.477Z,50.45
2023-09-24T08:56:15.822Z,52.04
2023-09-24T08:58:45.461Z,54.70
2023-09-24T09:01:14.452Z,54.85
2023-09-24T09:03:42.670Z,54.60
2023-09-24T09:06:10.814Z,54.27
2023-09-24T09:08:53.750Z,53.01
2023-09-24T09:11:22.918Z,52.74
2023-09-24T09:13:51.076Z,52.36
2023-09-24T09:16:22.224Z,51.73
2023-09-24T09:19:01.850Z,49.78
2023-09-24T09:21:30.441Z,49.15
2023-09-24T09:23:58.675Z,49.14
2023-09-24T09:26:30.325Z,48.48
2023-09-24T09:28:58.386Z,46.98
2023-09-24T09:31:26.632Z,46.95
2023-09-24T09:33:54.627Z,46.75
2023-09-24T09:36:30.870Z,45.81
2023-09-24T09:38:59.618Z,44.08
2023-09-24T09:41:28.141Z,43.29
2023-09-24T09:43:58.543Z,43.60
2023-09-24T09:46:26.717Z,43.12
2023-09-24T09:48:57.285Z,42.97
2023-09-24T09:51:28.868Z,43.30
2023-09-24T09:54:03.549Z,43.12
2023-09-24T09:56:32.008Z,42.88
2023-09-24T09:59:08.152Z,42.36
2023-09-24T10:01:37.766Z,41.53
2023-09-24T10:04:10.443Z,40.64
2023-09-24T10:06:41.152Z,40.79
2023-09-24T10:09:34.737Z,40.42
2023-09-24T10:12:05.570Z,40.25
2023-09-24T10:14:39.819Z,40.06
2023-09-24T10:17:23.249Z,40.08
2023-09-24T10:19:58.224Z,40.40
2023-09-24T10:22:29.682Z,40.12
2023-09-24T10:24:57.870Z,39.98
2023-09-24T10:27:32.053Z,39.72
2023-09-24T10:30:04.461Z,40.07
2023-09-24T10:32:45.150Z,39.90
2023-09-24T10:35:13.394Z,40.02
2023-09-24T10:38:00.519Z,39.66
2023-09-24T10:40:28.875Z,39.06
2023-09-24T10:43:15.170Z,39.03
2023-09-24T10:45:45.640Z,39.20
2023-09-24T10:48:14.295Z,39.15
2023-09-24T10:50:43.675Z,39.18
2023-09-24T10:53:11.427Z,39.40
2023-09-24T10:55:41.236Z,39.66
2023-09-24T10:58:14.613Z,40.18
2023-09-24T11:00:48.148Z,40.58
2023-09-24T11:03:16.235Z,41.08
2023-09-24T11:05:48.499Z,41.51
2023-09-24T11:08:19.093Z,41.86
2023-09-24T11:10:51.743Z,42.14
2023-09-24T11:13:22.923Z,42.30
2023-09-24T11:15:50.917Z,42.09
2023-09-24T11:18:18.986Z,42.28
2023-09-24T11:20:53.929Z,42.53
2023-09-24T11:23:21.818Z,43.12
2023-09-24T11:25:51.757Z,44.17
2023-09-24T11:28:31.263Z,45.07
2023-09-24T11:30:59.635Z,46.38
2023-09-24T11:33:27.661Z,47.00
2023-09-24T11:35:57.186Z,47.98
2023-09-24T11:38:37.473Z,49.01
2023-09-24T11:41:14.168Z,49.75
2023-09-24T11:43:43.036Z,50.50
2023-09-24T11:46:32.935Z,51.00
2023-09-24T11:49:01.315Z,51.54
2023-09-24T11:51:31.114Z,51.83
2023-09-24T11:54:00.280Z,51.99
2023-09-24T11:56:28.347Z,52.00
2023-09-24T11:58:56.238Z,51.72
2023-09-24T12:01:24.150Z,52.06
2023-09-24T12:03:54.100Z,52.34
2023-09-24T12:06:22.208Z,52.25
2023-09-24T12:08:50.148Z,51.94
2023-09-24T12:11:18.389Z,51.66
2023-09-24T12:13:46.598Z,51.69
2023-09-24T12:16:16.409Z,51.07
2023-09-24T12:18:44.649Z,50.97
2023-09-24T12:21:12.866Z,51.07
2023-09-24T12:23:45.951Z,51.40
2023-09-24T12:26:13.859Z,51.61
2023-09-24T12:28:41.705Z,51.60
2023-09-24T12:31:10.097Z,51.54
2023-09-24T12:33:38.311Z,51.26
2023-09-24T12:36:06.500Z,51.26
2023-09-24T12:38:36.956Z,51.10
2023-09-24T12:41:05.014Z,50.64
2023-09-24T12:43:32.746Z,49.82
2023-09-24T12:46:08.259Z,49.54
2023-09-24T12:48:36.645Z,49.27
2023-09-24T12:51:04.541Z,48.90
2023-09-24T12:53:33.619Z,48.56
2023-09-24T12:56:02.401Z,47.95
2023-09-24T12:58:33.093Z,46.96
2023-09-24T13:01:01.522Z,46.88
2023-09-24T13:03:29.464Z,46.85
2023-09-24T13:05:57.670Z,46.22
2023-09-24T13:08:25.109Z,45.79
2023-09-24T13:10:53.098Z,45.48
2023-09-24T13:13:20.872Z,45.59
2023-09-24T13:15:50.442Z,45.59
2023-09-24T13:18:18.392Z,45.71
2023-09-24T13:20:46.359Z,45.79
2023-09-24T13:23:14.313Z,45.48
2023-09-24T13:25:43.508Z,45.13
2023-09-24T13:28:11.238Z,44.65
2023-09-24T13:30:40.843Z,44.20
2023-09-24T13:33:08.624Z,44.05
2023-09-24T13:35:42.673Z,43.89
2023-09-24T13:38:10.979Z,43.27
2023-09-24T13:40:42.265Z,42.99
2023-09-24T13:43:10.089Z,42.78
2023-09-24T13:45:43.899Z,43.01
2023-09-24T13:48:11.743Z,43.07
2023-09-24T13:50:45.467Z,43.16
2023-09-24T13:53:13.339Z,43.41
2023-09-24T13:55:43.012Z,43.49
2023-09-24T13:58:11.238Z,43.77
2023-09-24T14:00:39.395Z,43.79
2023-09-24T14:03:08.676Z,43.81
2023-09-24T14:05:37.001Z,43.83
2023-09-24T14:08:23.969Z,43.92
2023-09-24T14:11:10.441Z,44.09
2023-09-24T14:13:38.458Z,44.25
2023-09-24T14:16:15.199Z,44.45
2023-09-24T14:18:45.661Z,44.61
2023-09-24T14:21:14.452Z,44.54
2023-09-24T14:23:42.257Z,44.55
2023-09-24T14:26:10.244Z,44.58
2023-09-24T14:28:38.713Z,44.73
2023-09-24T14:31:08.072Z,44.75
2023-09-24T14:33:36.807Z,44.93
2023-09-24T14:36:05.355Z,45.00
2023-09-24T14:38:33.433Z,44.70
2023-09-24T14:41:01.574Z,44.88
2023-09-24T14:43:30.629Z,44.88
2023-09-24T14:45:59.662Z,44.68
2023-09-24T14:48:29.222Z,44.65
2023-09-24T14:50:59.187Z,44.63
2023-09-24T14:53:29.533Z,44.71
2023-09-24T14:55:58.590Z,44.86
2023-09-24T14:58:30.656Z,44.84
2023-09-24T15:01:04.121Z,45.02
2023-09-24T15:03:34.426Z,45.14
2023-09-24T15:06:05.983Z,45.38
2023-09-24T15:08:34.649Z,45.43
2023-09-24T15:11:05.335Z,45.69
2023-09-24T15:13:35.931Z,45.98
2023-09-24T15:16:05.167Z,46.51
2023-09-24T15:18:34.309Z,46.98
2023-09-24T15:21:04.795Z,47.33
2023-09-24T15:23:32.984Z,47.73
2023-09-24T15:26:01.084Z,48.18
2023-09-24T15:28:28.981Z,48.44
2023-09-24T15:30:56.510Z,48.73
2023-09-24T15:33:24.255Z,48.92
2023-09-24T15:35:52.125Z,49.12
2023-09-24T15:38:19.873Z,49.47
2023-09-24T15:40:47.825Z,50.01
2023-09-24T15:43:15.643Z,50.52
2023-09-24T15:45:47.273Z,50.72
2023-09-24T15:48:15.398Z,51.00
2023-09-24T15:50:47.086Z,51.09
2023-09-24T15:53:16.256Z,51.16
2023-09-24T15:55:44.969Z,51.24
2023-09-24T15:58:16.790Z,51.24
2023-09-24T16:00:45.998Z,51.30
2023-09-24T16:03:15.803Z,51.48
2023-09-24T16:05:46.813Z,51.62
2023-09-24T16:08:14.566Z,51.65
2023-09-24T16:10:42.383Z,51.72
2023-09-24T16:13:10.406Z,51.89
2023-09-24T16:15:38.242Z,52.17
2023-09-24T16:18:06.304Z,52.47
2023-09-24T16:20:35.878Z,52.61
2023-09-24T16:23:06.647Z,53.02
2023-09-24T16:25:35.033Z,53.40
2023-09-24T16:28:03.062Z,53.76
2023-09-24T16:30:30.849Z,53.82
2023-09-24T16:32:58.696Z,53.90
2023-09-24T16:35:28.305Z,54.29
2023-09-24T16:37:56.130Z,54.38
2023-09-24T16:40:23.557Z,54.55
2023-09-24T16:42:52.606Z,54.57
2023-09-24T16:45:20.520Z,53.90
2023-09-24T16:47:48.607Z,53.96
2023-09-24T16:50:16.666Z,54.04
2023-09-24T16:52:44.800Z,54.39
2023-09-24T16:55:14.838Z,54.64
2023-09-24T16:57:46.099Z,54.70
2023-09-24T17:00:15.686Z,54.69
2023-09-24T17:02:47.113Z,54.99
2023-09-24T17:05:15.925Z,55.73
2023-09-24T17:07:43.996Z,55.87
2023-09-24T17:10:13.421Z,56.40
2023-09-24T17:12:42.371Z,56.83
2023-09-24T17:15:11.416Z,57.14
2023-09-24T17:17:39.897Z,57.67
2023-09-24T17:20:08.851Z,58.04
2023-09-24T17:22:36.767Z,58.65
2023-09-24T17:25:05.423Z,59.46
2023-09-24T17:27:33.615Z,59.27
2023-09-24T17:30:07.643Z,59.58
2023-09-24T17:32:35.887Z,60.28
2023-09-24T17:35:04.383Z,60.76
2023-09-24T17:37:32.285Z,61.32
2023-09-24T17:40:00.410Z,62.04
2023-09-24T17:42:28.833Z,62.34
2023-09-24T17:44:56.742Z,63.29
2023-09-24T17:47:24.734Z,63.28
2023-09-24T17:49:58.641Z,63.64
2023-09-24T17:52:26.893Z,63.53
2023-09-24T17:54:54.933Z,64.22
2023-09-24T17:57:23.945Z,64.41
2023-09-24T17:59:52.364Z,64.42
2023-09-24T18:02:23.106Z,65.08
2023-09-24T18:04:52.299Z,65.55
2023-09-24T18:07:23.063Z,66.41
2023-09-24T18:09:50.769Z,67.09
2023-09-24T18:12:18.822Z,67.48
2023-09-24T18:14:49.941Z,68.42
2023-09-24T18:17:20.694Z,68.85
2023-09-24T18:19:50.342Z,68.69
2023-09-24T18:22:18.061Z,69.21
2023-09-24T18:24:49.393Z,69.53
2023-09-24T18:27:21.023Z,69.78
2023-09-24T18:29:49.226Z,70.46
2023-09-24T18:32:17.990Z,70.75
2023-09-24T18:34:55.701Z,71.41
2023-09-24T18:37:23.984Z,71.87
2023-09-24T18:39:51.953Z,72.19
2023-09-24T18:42:20.841Z,72.77
2023-09-24T18:45:00.445Z,72.52
2023-09-24T18:47:29.567Z,72.29
2023-09-24T18:50:00.412Z,71.75
2023-09-24T18:52:29.729Z,71.18
2023-09-24T18:54:58.652Z,70.38
2023-09-24T18:57:28.887Z,69.51
2023-09-24T18:59:58.536Z,68.64
2023-09-24T19:02:26.488Z,68.13
2023-09-24T19:04:54.957Z,67.84
2023-09-24T19:07:24.453Z,67.59
2023-09-24T19:09:52.333Z,67.42
2023-09-24T19:12:21.347Z,67.27
2023-09-24T19:14:49.234Z,67.40
2023-09-24T19:17:17.047Z,67.31
2023-09-24T19:19:45.045Z,67.34
2023-09-24T19:22:12.561Z,67.27
2023-09-24T19:24:40.466Z,67.38
2023-09-24T19:27:08.550Z,67.39
2023-09-24T19:29:36.443Z,67.33
2023-09-24T19:32:04.841Z,67.40
2023-09-24T19:34:32.933Z,67.44
2023-09-24T19:37:00.738Z,67.52
2023-09-24T19:39:29.484Z,67.57
2023-09-24T19:41:57.570Z,67.88
2023-09-24T19:44:26.990Z,67.85
2023-09-24T19:46:55.140Z,67.79
2023-09-24T19:49:23.115Z,67.67
2023-09-24T19:51:50.803Z,67.74
2023-09-24T19:54:18.901Z,67.55
2023-09-24T19:56:47.371Z,67.54
2023-09-24T19:59:15.316Z,67.48
2023-09-24T20:01:42.953Z,67.40
2023-09-24T20:04:14.069Z,67.38
2023-09-24T20:06:42.300Z,67.26
2023-09-24T20:09:11.212Z,67.54
2023-09-24T20:11:42.244Z,67.57
2023-09-24T20:14:11.094Z,67.65
2023-09-24T20:16:38.809Z,68.02
2023-09-24T20:19:07.959Z,68.11
2023-09-24T20:21:35.919Z,68.43
2023-09-24T20:24:06.338Z,68.40
2023-09-24T20:26:42.514Z,68.53
2023-09-24T20:29:10.249Z,68.69
2023-09-24T20:31:39.025Z,69.03
2023-09-24T20:34:08.195Z,69.28
2023-09-24T20:36:36.109Z,69.11
2023-09-24T20:39:06.030Z,69.46
2023-09-24T20:41:37.900Z,69.51
2023-09-24T20:44:07.307Z,69.59
2023-09-24T20:46:43.490Z,69.65
2023-09-24T20:49:11.549Z,69.87
2023-09-24T20:51:40.266Z,70.01
2023-09-24T20:54:08.597Z,69.94
2023-09-24T20:56:36.336Z,70.19
2023-09-24T20:59:09.505Z,70.39
2023-09-24T21:01:37.300Z,70.11
2023-09-24T21:04:05.579Z,70.14
2023-09-24T21:06:33.504Z,70.26
2023-09-24T21:09:01.214Z,70.03
2023-09-24T21:11:29.008Z,70.31
2023-09-24T21:13:57.648Z,70.16
2023-09-24T21:16:25.647Z,70.33
2023-09-24T21:18:54.189Z,70.25
2023-09-24T21:21:22.033Z,70.19
2023-09-24T21:23:49.899Z,70.10
2023-09-24T21:26:17.802Z,70.07
2023-09-24T21:28:46.084Z,69.98
2023-09-24T21:31:14.379Z,70.09
2023-09-24T21:33:42.362Z,69.91
2023-09-24T21:36:10.216Z,69.86
2023-09-24T21:38:37.948Z,69.87
2023-09-24T21:41:06.201Z,69.73
2023-09-24T21:43:34.149Z,69.69
2023-09-24T21:46:04.633Z,69.61
2023-09-24T21:48:37.138Z,69.61
2023-09-24T21:51:05.751Z,69.68
2023-09-24T21:53:33.679Z,69.51
2023-09-24T21:56:01.713Z,69.49
2023-09-24T21:58:29.669Z,69.45
2023-09-24T22:00:57.961Z,69.48
2023-09-24T22:03:25.866Z,69.37
2023-09-24T22:05:54.516Z,69.40
2023-09-24T22:08:22.274Z,69.44
2023-09-24T22:10:49.930Z,69.34
2023-09-24T22:13:17.844Z,69.35
2023-09-24T22:15:46.087Z,69.33
2023-09-24T22:18:14.143Z,69.39
2023-09-24T22:20:42.017Z,69.56
2023-09-24T22:23:09.941Z,69.55
2023-09-24T22:25:38.259Z,69.70
2023-09-24T22:28:06.573Z,69.71
2023-09-24T22:30:35.888Z,69.81
2023-09-24T22:33:04.129Z,69.97
2023-09-24T22:35:35.805Z,70.03
2023-09-24T22:38:03.813Z,70.15
2023-09-24T22:40:31.577Z,70.34
2023-09-24T22:43:05.905Z,70.45
2023-09-24T22:45:28.716Z,70.53
2023-09-24T22:47:56.503Z,70.57
2023-09-24T22:50:24.479Z,70.54
2023-09-24T22:52:51.955Z,70.55
2023-09-24T22:55:19.720Z,70.61
2023-09-24T22:57:47.566Z,70.63
2023-09-24T23:00:17.636Z,70.68
2023-09-24T23:02:46.552Z,70.62
2023-09-24T23:05:14.656Z,70.62
2023-09-24T23:07:45.847Z,70.50
2023-09-24T23:10:13.581Z,70.38
2023-09-24T23:12:41.340Z,70.42
2023-09-24T23:15:10.754Z,70.50
2023-09-24T23:17:38.764Z,70.42
2023-09-24T23:20:07.486Z,70.42
2023-09-24T23:22:35.484Z,70.45
2023-09-24T23:25:03.843Z,70.49
2023-09-24T23:27:31.595Z,70.49
2023-09-24T23:29:59.545Z,70.54
2023-09-24T23:32:29.631Z,70.79
2023-09-24T23:34:57.394Z,70.86
2023-09-24T23:37:26.221Z,71.00
2023-09-24T23:39:54.626Z,71.11
2023-09-24T23:42:24.354Z,71.48
2023-09-24T23:44:52.321Z,71.45
2023-09-24T23:47:20.141Z,71.55
2023-09-24T23:49:47.942Z,71.80
2023-09-24T23:52:15.903Z,71.87
2023-09-24T23:54:43.914Z,72.04
2023-09-24T23:57:11.622Z,72.09
2023-09-24T23:59:39.330Z,72.05
